LFJLEDDR

Guest
Details From LFJL - Metz-Nancy-Lorraine
To EDDR - Saarbrucken
Flight Number -
Tags generated
Created
Modified
Stats Distance 37 nm / 69 km
Max Altitude 800 ft / 244 m
Waypoints 3
Social Downloads 0
Likes 0
Share VATSIM

Download

Looking for another format? Having issues loading an existing format? Contact us
Advertisement - Login to hide

Notes

Basic altitude profile: - Ascent Rate: 2500ft/min - Ascent Speed: 250kts - Cruise Altitude: 35000ft - Cruise Speed: 420kts - Descent Rate: 1500ft/min - Descent Speed: 250kts Options: - Use NATs: yes - Use PACOTS: yes - Use low airways: yes - Use high airways: yes

Route

LFJL MAKOT EDDR

ID Type Via Altitude Latitude Longitude Leg Dist Tot Dist Heading (true) Name
O LFJL APT - 0 ft / 0 m 48.98065˚ 6.24947˚ - 0 nm - Metz-Nancy-Lorraine
MAKOT FIX - 800 ft / 244 m 49.17222˚ 7.03944˚ 33 nm 33 nm 69° / 70° -
O EDDR APT - 0 ft / 0 m 49.21534˚ 7.11261˚ 3 nm 37 nm 48° / 48° Saarbrucken

Altitude Profile

Advertisement - Login to hide

LFJL

Details ICAO LFJL (ETZ)
Name Metz-Nancy-Lorraine
Region France
Timezone Europe/Paris (UTC+2.0)
Stats Elevation 870 ft / 265 m (AMSL)
Location 48.980645° 6.249473°
Runways 1
Magnetic Variation 1.776° E

METAR

LFJL 251130Z AUTO 03005KT 320V080 9999 SCT036 SCT042 24/14 Q1018 NOSIG

Decode

TAF

TAF LFJL 250500Z 2506/2606 VRB02KT 8000 NSC TEMPO 2506/2508 4000 BR PROB40 TEMPO 2506/2508 0800 BCFG VV/// BECMG 2508/2510 10008KT CAVOK

Decode

Departure Runways

ID Width Length Bearing (true) Bearing (mag) Surface Threshold Offset Overrun Length
04 148 ft / 45 m 10,016 ft / 3,053 m 39.13° 37.35° Asphalt 656 ft / 200 m 0 ft / 0 m
22 148 ft / 45 m 10,016 ft / 3,053 m 219.15° 217.37° Asphalt 0 ft / 0 m 0 ft / 0 m

EDDR

Details ICAO EDDR (SCN)
Name Saarbrucken
Region Germany - Civil
Timezone Europe/Berlin (UTC+2.0)
Stats Elevation 1,057 ft / 322 m (AMSL)
Location 49.215343° 7.112610°
Runways 2
Magnetic Variation 2.011° E

METAR

EDDR 251120Z VRB04KT 9999 FEW036 BKN270 22/13 Q1018 NOSIG

Decode

TAF

TAF EDDR 250500Z 2506/2606 VRB03KT 0200 FG BKN001 BECMG 2506/2507 4000 BR SCT005 BECMG 2507/2509 CAVOK BECMG 2514/2517 05006KT

Decode

Destination Runways

ID Width Length Bearing (true) Bearing (mag) Surface Threshold Offset Overrun Length
09 148 ft / 45 m 6,450 ft / 1,966 m 87.38° 85.37° Asphalt 85 ft / 26 m 0 ft / 0 m
09L 164 ft / 50 m 1,784 ft / 544 m 87.10° 85.09° Grass 0 ft / 0 m 0 ft / 0 m
27 148 ft / 45 m 6,450 ft / 1,966 m 267.40° 265.39° Asphalt 0 ft / 0 m 0 ft / 0 m
27R 164 ft / 50 m 1,784 ft / 544 m 267.10° 265.09° Grass 0 ft / 0 m 0 ft / 0 m

Approach Navaids

Runway Type Ident Frequency Range Bearing (true) Bearing (mag) Slope Elevation
27 Localiser DSB 108.70 MHz 25 nm / 46 km 267.37° 265.36° - 1,021 ft / 311 m (AMSL)
27 Glidescope DSB 108.70 MHz 10 nm / 19 km 267.39° 265.38° 3.00° 1,056 ft / 322 m (AMSL)